Aérodrome :
LOGIN :

S'inscrire | Disclaimer

   EN    FR    IT 

 










Légende :    VFR   VFR Marginal   IFR   IFR Intensif   IFR Très Intensif
Visi : 
Plafond : 
>= 8 km
>= 3000ft
5 à 8 km
1000 à 3000 ft
1500m à 5 km
500 à 1000 ft
800 à 1500m
200 à 500 ft
< 800m
< 200 ft
Symboles :   Orages  Brouillard  Fortes neiges  Fortes précipitations  Vent > 20 kt
SIGMETs :   Divers  Orages  Givrage  Turbulence  Onde Orograph.  Cendres Volcan.







- Altitude de l'aérodrome : 794 ft


LKCV - Čáslav Air Base

DERNIER METAR :
  • 211500Z 25012KT 9999 OVC024 08/06 Q1011 NOSIG RMK WHT WHT

METARs EXPIRÉS :
  • 211400Z 26012KT 9999 SCT014 OVC019 08/06 Q1011 NOSIG RMK WHT WHT
  • 211300Z 27011KT 9999 OVC019 08/06 Q1011 NOSIG RMK WHT WHT

TAF TAF LKCV
Valide du 21 à 12h jusqu'au 22 à 12h UTC


211100Z 2112/2212 25010KT 8000 SCT012 BKN022
TEMPO 2112/2201 26014G24KT 6000 RA SCT010 BKN016
PROB30
TEMPO 2118/2123 5000 SCT008 BKN012
BECMG 2207/2209 9999 SCT030
Pas de NOTAMs connus pour ce terrain.



MET'MAP, la Météo Aéronautique d'un coup d'oeil ! - Copyright ORBIFLY Décembre 2007 - Disclaimer

ORBIFLY MET'MAP TEAM :

Programmation & Développement : Alexandra Zaïnal
Conception & Développement : Baudouin d'Aumeries
Co-Programmation & Développement : Marc-Olivier Méhu
Soutien technique & logistique : Manuel Goepfert

Contact : metmap@orbifly.com




SOURCES & CREDITS :

   NOAA